createdAt,value
2018-07-29T00:01:47.616Z,19.60
2018-07-29T00:04:15.907Z,19.60
2018-07-29T00:06:44.245Z,19.70
2018-07-29T00:09:13.212Z,19.80
2018-07-29T00:11:41.598Z,19.80
2018-07-29T00:14:09.871Z,19.90
2018-07-29T00:16:38.619Z,19.90
2018-07-29T00:19:07.576Z,19.90
2018-07-29T00:21:35.882Z,20.00
2018-07-29T00:26:32.277Z,20.00
2018-07-29T00:29:00.665Z,20.00
2018-07-29T00:33:57.089Z,19.90
2018-07-29T00:36:25.357Z,19.90
2018-07-29T00:38:53.729Z,19.80
2018-07-29T00:41:22.020Z,19.70
2018-07-29T00:46:18.475Z,19.60
2018-07-29T00:48:46.738Z,19.60
2018-07-29T00:51:15.032Z,19.50
2018-07-29T00:53:43.344Z,19.50
2018-07-29T00:56:12.506Z,19.50
2018-07-29T00:58:40.779Z,19.40
2018-07-29T01:01:09.063Z,19.40
2018-07-29T01:03:37.333Z,19.40
2018-07-29T01:06:05.859Z,19.40
2018-07-29T01:08:34.118Z,19.40
2018-07-29T01:11:02.400Z,19.30
2018-07-29T01:15:58.739Z,19.30
2018-07-29T01:18:27.015Z,19.30
2018-07-29T01:20:55.306Z,19.30
2018-07-29T01:25:51.667Z,19.20
2018-07-29T01:28:19.948Z,19.20
2018-07-29T01:30:48.207Z,19.20
2018-07-29T01:33:16.480Z,19.20
2018-07-29T01:35:44.747Z,19.20
2018-07-29T01:38:13.001Z,19.30
2018-07-29T01:40:41.274Z,19.30
2018-07-29T01:43:09.539Z,19.20
2018-07-29T01:45:37.811Z,19.20
2018-07-29T01:48:06.126Z,19.30
2018-07-29T01:50:34.417Z,19.20
2018-07-29T01:53:02.684Z,19.30
2018-07-29T01:57:58.969Z,19.30
2018-07-29T02:00:27.249Z,19.40
2018-07-29T02:02:55.507Z,19.40
2018-07-29T02:05:23.811Z,19.40
2018-07-29T02:07:52.397Z,19.40
2018-07-29T02:10:20.652Z,19.30
2018-07-29T02:12:48.911Z,19.20
2018-07-29T02:15:17.197Z,19.10
2018-07-29T02:17:45.459Z,19.10
2018-07-29T02:20:13.727Z,19.00
2018-07-29T02:22:42.008Z,18.90
2018-07-29T02:27:38.289Z,18.80
2018-07-29T02:30:06.667Z,18.80
2018-07-29T02:32:34.953Z,18.70
2018-07-29T02:35:03.259Z,18.60
2018-07-29T02:37:31.533Z,18.60
2018-07-29T02:39:59.807Z,18.60
2018-07-29T02:42:28.085Z,18.50
2018-07-29T02:44:56.371Z,18.50
2018-07-29T02:47:24.660Z,18.50
2018-07-29T02:49:52.932Z,18.40
2018-07-29T02:52:21.219Z,18.40
2018-07-29T02:54:49.488Z,18.30
2018-07-29T02:57:17.760Z,18.30
2018-07-29T03:02:14.060Z,18.20
2018-07-29T03:04:42.343Z,18.20
2018-07-29T03:07:10.601Z,18.20
2018-07-29T03:09:38.868Z,18.20
2018-07-29T03:12:07.187Z,18.20
2018-07-29T03:14:35.457Z,18.20
2018-07-29T03:17:03.760Z,18.20
2018-07-29T03:19:32.056Z,18.20
2018-07-29T03:22:00.320Z,18.30
2018-07-29T03:24:28.586Z,18.30
2018-07-29T03:26:56.860Z,18.30
2018-07-29T03:29:25.160Z,18.30
2018-07-29T03:31:53.416Z,18.30
2018-07-29T03:34:21.700Z,18.30
2018-07-29T03:36:49.964Z,18.30
2018-07-29T03:39:18.244Z,18.30
2018-07-29T03:41:46.521Z,18.30
2018-07-29T03:44:14.796Z,18.40
2018-07-29T03:46:43.058Z,18.40
2018-07-29T03:49:11.415Z,18.30
2018-07-29T03:51:39.682Z,18.30
2018-07-29T03:54:07.969Z,18.20
2018-07-29T03:56:36.268Z,18.20
2018-07-29T03:59:04.530Z,18.20
2018-07-29T04:01:32.805Z,18.20
2018-07-29T04:04:01.081Z,18.10
2018-07-29T04:06:29.379Z,18.10
2018-07-29T04:08:57.655Z,18.00
2018-07-29T04:11:25.931Z,18.00
2018-07-29T04:13:54.208Z,18.00
2018-07-29T04:16:22.488Z,18.00
2018-07-29T04:18:55.940Z,18.00
2018-07-29T04:21:24.201Z,17.90
2018-07-29T04:23:52.548Z,17.90
2018-07-29T04:26:20.940Z,18.00
2018-07-29T04:28:49.174Z,18.00
2018-07-29T04:31:17.432Z,18.10
2018-07-29T04:33:45.688Z,18.10
2018-07-29T04:36:13.976Z,18.20
2018-07-29T04:38:42.240Z,18.20
2018-07-29T04:43:38.520Z,18.20
2018-07-29T04:46:06.806Z,18.40
2018-07-29T04:48:35.043Z,18.40
2018-07-29T04:51:03.330Z,18.40
2018-07-29T04:53:31.596Z,18.50
2018-07-29T04:55:59.923Z,18.50
2018-07-29T04:58:28.169Z,18.50
2018-07-29T05:00:56.490Z,18.50
2018-07-29T05:03:24.796Z,18.50
2018-07-29T05:05:53.476Z,18.60
2018-07-29T05:08:21.759Z,18.60
2018-07-29T05:10:50.037Z,18.70
2018-07-29T05:13:18.316Z,18.80
2018-07-29T05:15:46.604Z,18.90
2018-07-29T05:18:14.994Z,18.90
2018-07-29T05:20:43.265Z,19.00
2018-07-29T05:23:11.533Z,19.00
2018-07-29T05:28:08.480Z,19.20
2018-07-29T05:30:36.761Z,19.30
2018-07-29T05:33:05.031Z,19.40
2018-07-29T05:35:33.291Z,19.40
2018-07-29T05:38:01.573Z,19.50
2018-07-29T05:40:30.101Z,19.50
2018-07-29T05:42:58.380Z,19.60
2018-07-29T05:45:26.649Z,19.60
2018-07-29T05:47:54.915Z,19.60
2018-07-29T05:50:23.196Z,19.70
2018-07-29T05:52:51.473Z,19.80
2018-07-29T05:55:19.775Z,19.90
2018-07-29T05:57:48.075Z,20.00
2018-07-29T06:00:16.377Z,20.00
2018-07-29T06:02:44.664Z,20.10
2018-07-29T06:05:12.967Z,20.20
2018-07-29T06:07:41.223Z,20.30
2018-07-29T06:10:09.795Z,20.50
2018-07-29T06:12:38.073Z,20.70
2018-07-29T06:15:07.288Z,20.80
2018-07-29T06:17:35.623Z,21.00
2018-07-29T06:20:04.656Z,21.20
2018-07-29T06:22:32.937Z,21.30
2018-07-29T06:25:01.221Z,21.30
2018-07-29T06:27:29.504Z,21.40
2018-07-29T06:29:57.785Z,21.50
2018-07-29T06:32:26.067Z,21.60
2018-07-29T06:34:54.332Z,21.70
2018-07-29T06:37:22.688Z,21.90
2018-07-29T06:39:50.965Z,22.00
2018-07-29T06:42:19.253Z,22.00
2018-07-29T06:44:47.581Z,22.10
2018-07-29T06:47:15.803Z,22.20
2018-07-29T06:49:44.082Z,22.20
2018-07-29T06:52:12.407Z,22.20
2018-07-29T06:54:40.685Z,22.20
2018-07-29T06:57:08.987Z,22.20
2018-07-29T06:59:37.267Z,22.20
2018-07-29T07:02:06.083Z,22.30
2018-07-29T07:04:34.545Z,22.50
2018-07-29T07:07:02.847Z,22.60
2018-07-29T07:09:31.146Z,22.70
2018-07-29T07:14:27.452Z,22.90
2018-07-29T07:16:55.765Z,23.00
2018-07-29T07:19:24.027Z,23.10
2018-07-29T07:21:52.318Z,23.20
2018-07-29T07:24:20.579Z,23.30
2018-07-29T07:26:48.863Z,23.30
2018-07-29T07:29:17.198Z,23.40
2018-07-29T07:34:13.591Z,23.60
2018-07-29T07:36:41.861Z,23.50
2018-07-29T07:39:10.134Z,23.40
2018-07-29T07:41:38.456Z,23.40
2018-07-29T07:44:06.740Z,23.30
2018-07-29T07:46:35.068Z,23.30
2018-07-29T07:49:03.291Z,23.20
2018-07-29T07:51:31.637Z,23.20
2018-07-29T07:53:59.895Z,23.10
2018-07-29T07:56:28.240Z,23.00
2018-07-29T07:58:56.586Z,22.90
2018-07-29T08:03:53.201Z,22.90
2018-07-29T08:06:24.563Z,23.00
2018-07-29T08:08:52.827Z,23.10
2018-07-29T08:11:21.164Z,23.30
2018-07-29T08:13:50.241Z,23.50
2018-07-29T08:16:18.798Z,23.70
2018-07-29T08:18:47.219Z,23.90
2018-07-29T08:21:15.547Z,24.10
2018-07-29T08:23:43.849Z,24.30
2018-07-29T08:26:12.117Z,24.30
2018-07-29T08:28:40.411Z,24.40
2018-07-29T08:31:08.699Z,24.60
2018-07-29T08:33:37.088Z,24.60
2018-07-29T08:36:05.338Z,24.80
2018-07-29T08:38:33.637Z,24.90
2018-07-29T08:41:01.917Z,25.00
2018-07-29T08:43:30.237Z,25.10
2018-07-29T08:45:58.499Z,25.20
2018-07-29T08:48:26.767Z,25.30
2018-07-29T08:50:55.327Z,25.30
2018-07-29T08:53:23.623Z,25.20
2018-07-29T08:55:51.919Z,25.20
2018-07-29T08:58:20.245Z,25.20
2018-07-29T09:00:48.533Z,25.40
2018-07-29T09:03:16.834Z,25.50
2018-07-29T09:08:13.134Z,25.80
2018-07-29T09:10:41.435Z,25.90
2018-07-29T09:13:09.764Z,26.00
2018-07-29T09:18:06.076Z,26.00
2018-07-29T09:20:34.404Z,26.10
2018-07-29T09:25:30.845Z,26.20
2018-07-29T09:27:59.136Z,26.30
2018-07-29T09:30:27.585Z,26.40
2018-07-29T09:32:55.748Z,26.60
2018-07-29T09:35:24.055Z,26.80
2018-07-29T09:37:52.543Z,26.90
2018-07-29T09:40:20.936Z,26.90
2018-07-29T09:42:49.242Z,27.10
2018-07-29T09:45:17.570Z,27.20
2018-07-29T09:47:45.883Z,27.40
2018-07-29T09:50:14.206Z,27.70
2018-07-29T09:55:10.640Z,27.90
2018-07-29T09:57:38.927Z,28.00
2018-07-29T10:00:07.364Z,28.00
2018-07-29T10:02:35.672Z,28.00
2018-07-29T10:05:04.006Z,28.10
2018-07-29T10:10:00.332Z,28.20
2018-07-29T10:12:30.463Z,28.20
2018-07-29T10:14:58.746Z,28.20
2018-07-29T10:17:27.074Z,28.20
2018-07-29T10:19:55.357Z,28.20
2018-07-29T10:22:23.692Z,28.20
2018-07-29T10:24:52.320Z,28.30
2018-07-29T10:27:20.628Z,28.40
2018-07-29T10:29:48.946Z,28.30
2018-07-29T10:32:17.216Z,28.30
2018-07-29T10:34:45.496Z,28.40
2018-07-29T10:37:13.806Z,28.40
2018-07-29T10:39:42.132Z,28.50
2018-07-29T10:42:10.470Z,28.50
2018-07-29T10:44:38.750Z,28.60
2018-07-29T10:47:07.094Z,28.70
2018-07-29T10:49:35.395Z,28.70
2018-07-29T10:52:03.728Z,28.80
2018-07-29T10:54:32.036Z,28.80
2018-07-29T10:57:00.343Z,28.70
2018-07-29T10:59:28.617Z,28.60
2018-07-29T11:01:56.931Z,28.40
2018-07-29T11:04:25.227Z,28.40
2018-07-29T11:09:21.523Z,28.60
2018-07-29T11:11:49.850Z,28.70
2018-07-29T11:14:18.141Z,28.70
2018-07-29T11:16:46.417Z,28.70
2018-07-29T11:19:14.743Z,28.70
2018-07-29T11:21:43.040Z,28.70
2018-07-29T11:24:11.325Z,28.70
2018-07-29T11:26:39.621Z,28.80
2018-07-29T11:29:08.135Z,28.80
2018-07-29T11:31:36.453Z,29.00
2018-07-29T11:34:04.744Z,29.10
2018-07-29T11:36:33.027Z,29.20
2018-07-29T11:39:01.305Z,29.20
2018-07-29T11:41:29.864Z,29.30
2018-07-29T11:43:58.269Z,29.40
2018-07-29T11:46:26.607Z,29.50
2018-07-29T11:48:54.913Z,29.60
2018-07-29T11:51:23.203Z,29.50
2018-07-29T11:56:19.531Z,29.50
2018-07-29T11:58:47.884Z,29.70
2018-07-29T12:01:16.183Z,29.80
2018-07-29T12:03:44.447Z,29.90
2018-07-29T12:06:12.778Z,29.80
2018-07-29T12:08:41.369Z,29.60
2018-07-29T12:11:09.672Z,29.50
2018-07-29T12:13:37.960Z,29.40
2018-07-29T12:16:06.251Z,29.30
2018-07-29T12:18:34.559Z,29.30
2018-07-29T12:21:02.839Z,29.30
2018-07-29T12:23:31.142Z,29.30
2018-07-29T12:25:59.661Z,29.40
2018-07-29T12:28:27.928Z,29.50
2018-07-29T12:30:56.234Z,29.60
2018-07-29T12:33:24.548Z,29.50
2018-07-29T12:35:53.078Z,29.50
2018-07-29T12:38:21.368Z,29.40
2018-07-29T12:40:49.657Z,29.40
2018-07-29T12:43:17.962Z,29.40
2018-07-29T12:45:46.235Z,29.50
2018-07-29T12:48:14.571Z,29.60
2018-07-29T12:50:42.843Z,29.70
2018-07-29T12:53:11.125Z,29.90
2018-07-29T12:55:39.430Z,30.00
2018-07-29T12:58:07.683Z,30.10
2018-07-29T13:00:35.979Z,30.30
2018-07-29T13:03:04.272Z,30.40
2018-07-29T13:08:00.929Z,30.40
2018-07-29T13:10:29.245Z,30.50
2018-07-29T13:12:57.610Z,30.70
2018-07-29T13:15:25.908Z,30.90
2018-07-29T13:17:54.220Z,31.10
2018-07-29T13:22:50.560Z,31.00
2018-07-29T13:25:18.888Z,30.70
2018-07-29T13:27:47.174Z,30.50
2018-07-29T13:30:15.510Z,30.40
2018-07-29T13:32:43.813Z,30.50
2018-07-29T13:45:06.983Z,30.70
2018-07-29T13:47:35.273Z,30.70
2018-07-29T13:50:04.264Z,30.70
2018-07-29T13:52:32.572Z,30.50
2018-07-29T13:55:00.873Z,30.40
2018-07-29T13:57:29.223Z,30.20
2018-07-29T13:59:57.505Z,30.00
2018-07-29T14:02:25.940Z,29.90
2018-07-29T14:04:54.248Z,29.70
2018-07-29T14:07:22.521Z,29.70
2018-07-29T14:12:18.831Z,29.70
2018-07-29T14:14:47.140Z,29.70
2018-07-29T14:17:15.527Z,29.70
2018-07-29T14:19:43.830Z,29.60
2018-07-29T14:24:40.140Z,29.80
2018-07-29T14:27:08.456Z,29.90
2018-07-29T14:29:36.780Z,29.80
2018-07-29T14:32:05.095Z,29.70
2018-07-29T14:34:33.367Z,29.70
2018-07-29T14:37:01.729Z,29.80
2018-07-29T14:39:29.979Z,29.90
2018-07-29T14:44:26.290Z,30.00
2018-07-29T14:46:54.606Z,30.00
2018-07-29T14:49:22.886Z,29.90
2018-07-29T14:51:51.172Z,29.80
2018-07-29T14:54:19.440Z,29.70
2018-07-29T14:56:47.711Z,29.60
2018-07-29T14:59:15.996Z,29.50
2018-07-29T15:01:44.288Z,29.50
2018-07-29T15:04:12.556Z,29.50
2018-07-29T15:06:40.868Z,29.60
2018-07-29T15:09:10.384Z,29.70
2018-07-29T15:11:38.685Z,29.80
2018-07-29T15:14:06.950Z,29.90
2018-07-29T15:16:35.263Z,29.90
2018-07-29T15:19:03.708Z,30.00
2018-07-29T15:21:32.000Z,30.10
2018-07-29T15:24:00.427Z,30.00
2018-07-29T15:26:29.141Z,30.00
2018-07-29T15:28:57.446Z,30.00
2018-07-29T15:31:25.763Z,30.10
2018-07-29T15:33:54.132Z,30.10
2018-07-29T15:36:22.444Z,30.10
2018-07-29T15:38:50.744Z,30.10
2018-07-29T15:41:19.065Z,30.20
2018-07-29T15:43:47.379Z,30.30
2018-07-29T15:48:43.678Z,30.30
2018-07-29T15:51:12.057Z,30.30
2018-07-29T15:53:40.337Z,30.10
2018-07-29T15:56:08.581Z,29.90
2018-07-29T16:01:04.908Z,29.50
2018-07-29T16:03:33.174Z,29.30
2018-07-29T16:06:01.568Z,29.10
2018-07-29T16:08:29.930Z,29.20
2018-07-29T16:10:58.189Z,29.30
2018-07-29T16:13:26.472Z,29.50
2018-07-29T16:15:54.762Z,29.60
2018-07-29T16:18:23.160Z,29.70
2018-07-29T16:20:51.481Z,29.80
2018-07-29T16:23:19.772Z,29.80
2018-07-29T16:25:48.090Z,29.80
2018-07-29T16:28:16.440Z,29.80
2018-07-29T16:30:44.845Z,29.80
2018-07-29T16:33:13.126Z,29.70
2018-07-29T16:35:41.436Z,29.80
2018-07-29T16:38:09.740Z,29.80
2018-07-29T16:40:38.045Z,29.90
2018-07-29T16:43:06.350Z,29.90
2018-07-29T16:45:34.688Z,29.90
2018-07-29T16:48:03.034Z,29.90
2018-07-29T16:50:31.328Z,29.90
2018-07-29T16:52:59.650Z,29.90
2018-07-29T16:55:27.938Z,29.90
2018-07-29T17:00:24.323Z,29.90
2018-07-29T17:05:20.915Z,29.90
2018-07-29T17:07:49.208Z,29.90
2018-07-29T17:10:17.668Z,29.90
2018-07-29T17:15:13.947Z,29.90
2018-07-29T17:17:42.268Z,30.20
2018-07-29T17:20:10.578Z,30.80
2018-07-29T17:22:38.865Z,31.40
2018-07-29T17:25:07.247Z,31.70
2018-07-29T17:27:35.587Z,32.10
2018-07-29T17:30:04.325Z,32.50
2018-07-29T17:32:32.644Z,32.80
2018-07-29T17:35:00.963Z,33.10
2018-07-29T17:37:29.274Z,33.20
2018-07-29T17:39:57.700Z,33.40
2018-07-29T17:42:26.007Z,33.30
2018-07-29T17:44:54.353Z,33.40
2018-07-29T17:47:22.641Z,33.60
2018-07-29T17:49:51.088Z,33.80
2018-07-29T17:52:19.282Z,33.80
2018-07-29T17:54:47.571Z,33.80
2018-07-29T17:59:43.848Z,33.30
2018-07-29T18:02:12.203Z,32.90
2018-07-29T18:04:40.470Z,32.50
2018-07-29T18:07:08.787Z,32.00
2018-07-29T18:09:37.085Z,31.60
2018-07-29T18:12:05.523Z,31.20
2018-07-29T18:14:33.796Z,30.90
2018-07-29T18:17:02.120Z,30.50
2018-07-29T18:19:30.451Z,30.30
2018-07-29T18:21:58.777Z,30.10
2018-07-29T18:26:55.097Z,29.80
2018-07-29T18:29:23.417Z,29.60
2018-07-29T18:34:19.749Z,29.30
2018-07-29T18:36:48.093Z,29.10
2018-07-29T18:39:16.442Z,29.00
2018-07-29T18:41:44.721Z,28.80
2018-07-29T18:44:13.007Z,28.60
2018-07-29T18:49:09.465Z,28.30
2018-07-29T18:51:37.783Z,28.20
2018-07-29T18:54:06.109Z,28.10
2018-07-29T18:56:34.420Z,27.90
2018-07-29T19:01:30.889Z,27.70
2018-07-29T19:03:59.525Z,27.40
2018-07-29T19:06:28.076Z,27.30
2018-07-29T19:08:56.353Z,27.20
2018-07-29T19:11:24.707Z,26.90
2018-07-29T19:13:53.024Z,26.80
2018-07-29T19:21:17.515Z,26.20
2018-07-29T19:23:45.912Z,26.00
2018-07-29T19:26:14.218Z,25.90
2018-07-29T19:28:42.525Z,25.70
2018-07-29T19:31:10.821Z,25.60
2018-07-29T19:33:39.230Z,25.40
2018-07-29T19:36:07.518Z,25.30
2018-07-29T19:38:35.863Z,25.20
2018-07-29T19:41:04.247Z,25.20
2018-07-29T19:43:32.541Z,25.10
2018-07-29T19:46:00.857Z,25.00
2018-07-29T19:48:29.887Z,24.90
2018-07-29T19:50:58.810Z,24.90
2018-07-29T19:53:28.188Z,24.90
2018-07-29T19:55:56.851Z,24.80
2018-07-29T19:58:25.177Z,24.70
2018-07-29T20:00:53.525Z,24.60
2018-07-29T20:03:22.039Z,24.60
2018-07-29T20:05:50.369Z,24.50
2018-07-29T20:08:18.673Z,24.40
2018-07-29T20:10:46.983Z,24.40
2018-07-29T20:13:15.283Z,24.40
2018-07-29T20:15:43.681Z,24.40
2018-07-29T20:18:11.999Z,24.40
2018-07-29T20:20:40.369Z,24.40
2018-07-29T20:23:08.741Z,24.30
2018-07-29T20:25:37.041Z,24.20
2018-07-29T20:30:33.813Z,24.10
2018-07-29T20:33:02.176Z,23.90
2018-07-29T20:35:30.493Z,23.90
2018-07-29T20:37:58.817Z,23.80
2018-07-29T20:40:27.185Z,23.80
2018-07-29T20:42:55.493Z,23.70
2018-07-29T20:45:23.887Z,23.60
2018-07-29T20:47:52.312Z,23.50
2018-07-29T20:50:20.673Z,23.50
2018-07-29T20:52:48.985Z,23.40
2018-07-29T20:55:17.268Z,23.30
2018-07-29T20:57:45.623Z,23.30
2018-07-29T21:00:13.941Z,23.20
2018-07-29T21:02:42.230Z,23.20
2018-07-29T21:05:10.544Z,23.10
2018-07-29T21:07:38.883Z,23.10
2018-07-29T21:10:07.277Z,23.00
2018-07-29T21:12:35.616Z,23.00
2018-07-29T21:15:04.210Z,22.90
2018-07-29T21:17:32.549Z,22.80
2018-07-29T21:20:00.856Z,22.80
2018-07-29T21:22:29.212Z,22.70
2018-07-29T21:24:57.597Z,22.60
2018-07-29T21:27:25.905Z,22.60
2018-07-29T21:29:54.181Z,22.60
2018-07-29T21:32:22.534Z,22.50
2018-07-29T21:34:50.871Z,22.50
2018-07-29T21:37:19.243Z,22.40
2018-07-29T21:39:47.527Z,22.50
2018-07-29T21:42:15.830Z,22.40
2018-07-29T21:44:44.092Z,22.30
2018-07-29T21:47:12.384Z,22.30
2018-07-29T21:49:40.682Z,22.30
2018-07-29T21:52:09.012Z,22.30
2018-07-29T21:57:05.286Z,22.30
2018-07-29T21:59:33.562Z,22.20
2018-07-29T22:02:01.924Z,22.20
2018-07-29T22:04:30.205Z,22.20
2018-07-29T22:06:58.584Z,22.10
2018-07-29T22:09:26.848Z,22.10
2018-07-29T22:11:55.146Z,22.10
2018-07-29T22:14:23.422Z,22.10
2018-07-29T22:16:51.708Z,22.10
2018-07-29T22:19:19.989Z,22.00
2018-07-29T22:21:48.366Z,22.00
2018-07-29T22:24:16.717Z,22.00
2018-07-29T22:26:50.332Z,21.90
2018-07-29T22:29:23.912Z,21.90
2018-07-29T22:31:57.559Z,21.80
2018-07-29T22:34:25.838Z,21.80
2018-07-29T22:36:54.104Z,21.80
2018-07-29T22:39:22.392Z,21.80
2018-07-29T22:41:50.669Z,21.70
2018-07-29T22:44:18.952Z,21.70
2018-07-29T22:46:47.204Z,21.70
2018-07-29T22:49:15.608Z,21.60
2018-07-29T22:51:44.119Z,21.60
2018-07-29T22:54:12.422Z,21.60
2018-07-29T22:56:40.812Z,21.60
2018-07-29T22:59:09.468Z,21.60
2018-07-29T23:01:37.896Z,21.40
2018-07-29T23:04:06.220Z,21.40
2018-07-29T23:06:34.478Z,21.40
2018-07-29T23:09:02.791Z,21.30
2018-07-29T23:11:31.134Z,21.30
2018-07-29T23:16:27.438Z,21.20
2018-07-29T23:18:55.688Z,21.20
2018-07-29T23:21:23.976Z,21.10
2018-07-29T23:23:52.240Z,21.10
2018-07-29T23:28:48.524Z,21.00
2018-07-29T23:31:16.796Z,21.00
2018-07-29T23:33:45.097Z,21.00
2018-07-29T23:36:13.380Z,20.90
2018-07-29T23:38:41.648Z,20.90
2018-07-29T23:41:10.088Z,20.80
2018-07-29T23:43:38.340Z,20.80
2018-07-29T23:46:06.640Z,20.70
2018-07-29T23:48:34.929Z,20.70
2018-07-29T23:51:03.216Z,20.70
2018-07-29T23:53:31.501Z,20.60
2018-07-29T23:55:59.821Z,20.60
